Time;durP1;ratioP1;P1;durP2;ratioP2;P2;SDS_P1;SDS_P2;PMS_P1;PMS_P2;Temp;Humidity;BMP_temperature;BMP_pressure;BME280_temperature;BME280_humidity;BME280_pressure;Samples;Min_cycle;Max_cycle;Signal;HPM_P1;HPM_P2
2021/12/08 00:01:56;;;;;;;25.98;10.93;;;;;;;;;;4994017;28;20133;-60
2021/12/08 00:04:28;;;;;;;26.20;11.00;;;;;;;;;;4994517;28;20019;-61
2021/12/08 00:07:02;;;;;;;22.15;9.77;;;;;;;;;;4995146;28;20022;-60
2021/12/08 00:09:48;;;;;;;25.88;10.25;;;;;;;;;;5010569;28;20034;-60
2021/12/08 00:15:03;;;;;;;22.88;10.43;;;;;;;;;;4995290;28;20049;-60
2021/12/08 00:17:33;;;;;;;19.08;9.57;;;;;;;;;;4994527;28;20031;-61
2021/12/08 00:20:04;;;;;;;21.73;10.30;;;;;;;;;;4995370;28;20022;-63
2021/12/08 00:22:32;;;;;;;;;;;;;;;;;;4995385;28;20022;-62
2021/12/08 00:25:04;;;;;;;21.58;9.77;;;;;;;;;;5009837;28;20338;-59
2021/12/08 00:27:31;;;;;;;19.95;9.70;;;;;;;;;;4994940;28;20034;-60
2021/12/08 00:29:58;;;;;;;25.42;10.85;;;;;;;;;;4995021;28;20399;-62
2021/12/08 00:32:31;;;;;;;20.75;10.18;;;;;;;;;;4994566;28;20151;-59
2021/12/08 00:35:00;;;;;;;27.92;12.63;;;;;;;;;;4995143;28;20018;-62
2021/12/08 00:37:29;;;;;;;25.27;10.80;;;;;;;;;;4994611;28;20483;-60
2021/12/08 00:39:57;;;;;;;28.83;11.85;;;;;;;;;;4994463;28;20030;-59
2021/12/08 00:42:26;;;;;;;25.63;10.85;;;;;;;;;;4994786;28;20068;-59
2021/12/08 00:44:59;;;;;;;24.30;9.85;;;;;;;;;;4994535;28;20026;-60
2021/12/08 00:47:27;;;;;;;28.88;11.82;;;;;;;;;;4994528;28;20582;-61
2021/12/08 00:49:57;;;;;;;22.77;9.95;;;;;;;;;;5010148;28;20026;-59
2021/12/08 00:52:28;;;;;;;23.10;10.27;;;;;;;;;;4993192;28;20377;-61
2021/12/08 00:55:00;;;;;;;18.90;9.45;;;;;;;;;;4974388;28;20022;-59
2021/12/08 00:57:31;;;;;;;23.85;9.95;;;;;;;;;;4983556;28;20108;-60
2021/12/08 01:00:03;;;;;;;22.93;10.27;;;;;;;;;;4993453;28;20023;-61
2021/12/08 01:02:38;;;;;;;24.13;9.55;;;;;;;;;;4994135;28;20732;-61
2021/12/08 01:05:13;;;;;;;21.67;9.68;;;;;;;;;;4994583;28;20105;-61
2021/12/08 01:07:45;;;;;;;19.65;9.90;;;;;;;;;;4994044;28;20019;-60
2021/12/08 01:10:15;;;;;;;18.42;8.82;;;;;;;;;;4993617;28;20025;-60
2021/12/08 01:12:42;;;;;;;20.67;9.07;;;;;;;;;;4993772;28;20022;-60
2021/12/08 01:15:17;;;;;;;21.80;9.20;;;;;;;;;;4994180;28;20023;-62
2021/12/08 01:17:49;;;;;;;18.02;9.32;;;;;;;;;;4993526;28;20038;-60
2021/12/08 01:20:18;;;;;;;19.88;9.27;;;;;;;;;;4993526;28;20088;-60
2021/12/08 01:22:52;;;;;;;21.00;10.00;;;;;;;;;;4993949;28;20014;-63
2021/12/08 01:25:21;;;;;;;20.17;9.40;;;;;;;;;;4993137;28;20476;-62
2021/12/08 01:27:50;;;;;;;24.27;10.48;;;;;;;;;;4993866;28;20105;-59
2021/12/08 01:30:20;;;;;;;23.02;9.90;;;;;;;;;;4976785;28;20391;-60
2021/12/08 01:32:48;;;;;;;23.58;10.10;;;;;;;;;;4993600;28;20033;-60
2021/12/08 01:35:17;;;;;;;24.48;9.32;;;;;;;;;;4993209;28;20065;-60
2021/12/08 01:37:44;;;;;;;25.35;11.20;;;;;;;;;;4994042;28;20030;-61
2021/12/08 01:40:13;;;;;;;25.17;10.68;;;;;;;;;;4993425;28;20250;-61
2021/12/08 01:42:45;;;;;;;27.33;11.38;;;;;;;;;;4992308;28;20042;-61
2021/12/08 01:48:07;;;;;;;26.20;10.15;;;;;;;;;;4993725;28;20041;-60
2021/12/08 01:50:37;;;;;;;21.35;9.82;;;;;;;;;;4993644;28;20030;-61
2021/12/08 01:53:06;;;;;;;24.00;9.57;;;;;;;;;;4993908;28;20014;-61
2021/12/08 01:55:41;;;;;;;26.60;10.98;;;;;;;;;;4993592;28;20023;-61
2021/12/08 01:58:10;;;;;;;27.23;10.45;;;;;;;;;;4993829;28;20043;-60
2021/12/08 02:00:40;;;;;;;23.85;10.75;;;;;;;;;;4991549;28;20110;-61
2021/12/08 02:03:08;;;;;;;27.83;12.05;;;;;;;;;;4993401;28;20037;-60
2021/12/08 02:05:36;;;;;;;22.00;10.25;;;;;;;;;;4994412;28;20024;-61
2021/12/08 02:08:05;;;;;;;19.73;8.52;;;;;;;;;;4993058;28;20434;-59
2021/12/08 02:10:33;;;;;;;20.42;9.50;;;;;;;;;;4975839;28;20026;-61
2021/12/08 02:13:01;;;;;;;19.30;8.70;;;;;;;;;;4993619;28;20022;-59
2021/12/08 02:15:28;;;;;;;24.30;9.55;;;;;;;;;;4993785;28;20153;-60
2021/12/08 02:17:56;;;;;;;23.77;9.88;;;;;;;;;;4993315;28;20030;-61
2021/12/08 02:23:51;;;;;;;19.95;9.07;;;;;;;;;;4984997;28;20391;-62
2021/12/08 02:26:39;;;;;;;16.90;8.63;;;;;;;;;;4997257;28;20085;-61
2021/12/08 02:29:57;;;;;;;21.73;10.57;;;;;;;;;;4997672;28;20387;-60
2021/12/08 02:32:33;;;;;;;24.50;10.10;;;;;;;;;;4986433;28;20026;-61
2021/12/08 02:48:35;;;;;;;22.48;10.02;;;;;;;;;;4982745;28;20524;-61
2021/12/08 02:51:03;;;;;;;20.23;9.70;;;;;;;;;;4996672;28;20459;-61
2021/12/08 02:53:33;;;;;;;20.60;8.90;;;;;;;;;;4996762;28;20026;-60
2021/12/08 02:56:00;;;;;;;25.37;9.50;;;;;;;;;;4996947;28;20027;-60
2021/12/08 02:58:26;;;;;;;21.85;9.60;;;;;;;;;;4996232;28;20365;-61
2021/12/08 03:00:55;;;;;;;18.83;9.60;;;;;;;;;;4996996;28;20058;-60
2021/12/08 03:03:22;;;;;;;21.60;10.15;;;;;;;;;;4996742;28;20487;-61
2021/12/08 03:05:49;;;;;;;24.27;10.60;;;;;;;;;;4996421;28;20077;-61
2021/12/08 03:08:18;;;;;;;23.52;9.95;;;;;;;;;;4996611;28;20022;-61
2021/12/08 03:10:47;;;;;;;19.38;8.93;;;;;;;;;;4996444;28;20050;-61
2021/12/08 03:13:28;;;;;;;24.27;10.18;;;;;;;;;;4995632;28;20549;-61
2021/12/08 03:15:55;;;;;;;18.42;8.57;;;;;;;;;;4996229;28;20068;-60
2021/12/08 03:18:22;;;;;;;15.23;8.65;;;;;;;;;;4996309;28;20034;-62
2021/12/08 03:20:59;;;;;;;21.02;8.35;;;;;;;;;;4995660;28;20026;-61
2021/12/08 03:26:25;;;;;;;17.20;8.63;;;;;;;;;;4996083;28;20037;-60
2021/12/08 03:29:16;;;;;;;21.48;8.88;;;;;;;;;;4994456;28;20035;-61
2021/12/08 03:31:51;;;;;;;22.77;9.32;;;;;;;;;;4995467;28;20022;-61
2021/12/08 03:34:26;;;;;;;18.20;8.70;;;;;;;;;;4994852;28;20042;-60
2021/12/08 03:37:04;;;;;;;24.58;9.25;;;;;;;;;;4995778;28;20106;-61
2021/12/08 03:39:33;;;;;;;23.90;10.30;;;;;;;;;;4996033;28;20169;-60
2021/12/08 03:42:00;;;;;;;54.97;18.35;;;;;;;;;;4995448;28;20018;-60
2021/12/08 03:44:27;;;;;;;50.20;19.92;;;;;;;;;;4996303;28;20459;-59
2021/12/08 03:47:00;;;;;;;37.45;15.82;;;;;;;;;;4995968;28;20037;-59
2021/12/08 03:49:26;;;;;;;33.92;14.77;;;;;;;;;;4996521;28;20063;-61
2021/12/08 03:51:52;;;;;;;83.40;26.75;;;;;;;;;;4995847;28;20034;-61
2021/12/08 03:54:18;;;;;;;52.13;19.55;;;;;;;;;;4995178;28;20026;-59
2021/12/08 03:56:44;;;;;;;48.13;18.42;;;;;;;;;;4995974;28;20026;-59
2021/12/08 03:59:10;;;;;;;37.92;15.07;;;;;;;;;;4996140;28;20026;-59
2021/12/08 04:01:37;;;;;;;34.55;13.35;;;;;;;;;;4995868;28;20059;-59
2021/12/08 04:04:07;;;;;;;31.58;12.40;;;;;;;;;;4995617;28;20029;-60
2021/12/08 04:07:07;;;;;;;22.60;10.45;;;;;;;;;;4995900;28;20019;-60
2021/12/08 04:09:38;;;;;;;23.50;10.57;;;;;;;;;;4991287;28;20479;-60
2021/12/08 04:12:05;;;;;;;21.10;9.07;;;;;;;;;;4995756;28;20023;-60
2021/12/08 04:14:33;;;;;;;22.70;9.65;;;;;;;;;;4995566;28;20467;-60
2021/12/08 04:17:20;;;;;;;23.13;9.10;;;;;;;;;;4995278;28;20026;-59
2021/12/08 04:19:46;;;;;;;19.58;8.73;;;;;;;;;;4995609;28;20022;-60
2021/12/08 04:22:22;;;;;;;19.63;8.70;;;;;;;;;;4995315;28;20081;-60
2021/12/08 04:24:50;;;;;;;18.38;8.05;;;;;;;;;;4995566;28;20029;-59
2021/12/08 04:27:18;;;;;;;19.40;8.45;;;;;;;;;;4995096;28;20082;-60
2021/12/08 04:29:45;;;;;;;26.15;10.60;;;;;;;;;;4995079;28;20023;-59
2021/12/08 04:32:15;;;;;;;30.95;11.68;;;;;;;;;;4995462;28;20027;-59
2021/12/08 04:34:45;;;;;;;22.40;11.13;;;;;;;;;;4995006;28;20050;-59
2021/12/08 04:37:22;;;;;;;24.52;10.23;;;;;;;;;;4977532;28;20383;-59
2021/12/08 04:40:06;;;;;;;24.63;9.93;;;;;;;;;;4995357;28;20356;-59
2021/12/08 04:42:52;;;;;;;25.08;10.13;;;;;;;;;;4994950;28;20097;-59
2021/12/08 04:45:28;;;;;;;29.92;10.48;;;;;;;;;;4994183;28;20041;-61
2021/12/08 04:48:16;;;;;;;20.58;10.15;;;;;;;;;;4995095;28;20066;-57
2021/12/08 04:54:02;;;;;;;21.17;9.70;;;;;;;;;;4977846;28;20039;-60
2021/12/08 05:07:28;;;;;;;39.20;15.98;;;;;;;;;;4994719;28;20030;-60
2021/12/08 05:09:55;;;;;;;25.13;11.73;;;;;;;;;;4994848;28;20030;-60
2021/12/08 05:12:24;;;;;;;28.00;11.40;;;;;;;;;;4994243;28;20034;-60
2021/12/08 05:15:05;;;;;;;24.60;11.25;;;;;;;;;;4994305;28;20463;-60
2021/12/08 05:17:34;;;;;;;28.80;11.95;;;;;;;;;;4994464;28;20057;-61
2021/12/08 05:20:02;;;;;;;25.98;10.82;;;;;;;;;;4993735;28;20022;-60
2021/12/08 05:22:41;;;;;;;22.55;10.98;;;;;;;;;;4994465;28;20022;-61
2021/12/08 05:25:10;;;;;;;23.63;10.98;;;;;;;;;;4994185;28;20185;-60
2021/12/08 05:27:43;;;;;;;23.67;9.85;;;;;;;;;;4994149;28;20026;-60
2021/12/08 05:30:12;;;;;;;24.38;10.15;;;;;;;;;;4994316;28;20029;-59
2021/12/08 05:32:38;;;;;;;27.33;10.60;;;;;;;;;;4993562;28;20026;-60
2021/12/08 05:35:06;;;;;;;28.73;12.07;;;;;;;;;;4992740;28;20023;-60
2021/12/08 05:37:32;;;;;;;24.58;11.77;;;;;;;;;;4993791;28;20740;-60
2021/12/08 05:39:58;;;;;;;31.48;13.68;;;;;;;;;;4993958;28;20031;-60
2021/12/08 05:42:28;;;;;;;31.02;14.70;;;;;;;;;;4993143;28;20022;-61
2021/12/08 05:44:56;;;;;;;37.80;15.43;;;;;;;;;;4992630;28;20475;-61
2021/12/08 05:47:31;;;;;;;33.70;15.20;;;;;;;;;;4993053;28;20023;-59
2021/12/08 05:49:58;;;;;;;30.10;12.65;;;;;;;;;;4992369;28;20026;-60
2021/12/08 05:52:25;;;;;;;30.63;12.30;;;;;;;;;;4993971;28;20037;-61
2021/12/08 05:54:51;;;;;;;30.58;13.65;;;;;;;;;;4993689;28;20025;-57
2021/12/08 05:57:38;;;;;;;29.17;13.40;;;;;;;;;;4998058;28;20030;-59
2021/12/08 06:00:12;;;;;;;29.20;15.60;;;;;;;;;;4996531;28;20076;-58
2021/12/08 06:02:38;;;;;;;37.53;15.85;;;;;;;;;;4997090;28;20050;-59
2021/12/08 06:05:06;;;;;;;37.17;15.57;;;;;;;;;;4997611;28;20153;-56
2021/12/08 06:07:32;;;;;;;26.38;13.68;;;;;;;;;;4996778;28;20047;-73
2021/12/08 06:10:00;;;;;;;31.55;14.55;;;;;;;;;;4994877;28;20029;-57
2021/12/08 06:12:28;;;;;;;29.67;13.57;;;;;;;;;;4997654;28;20382;-57
2021/12/08 06:14:55;;;;;;;43.88;19.55;;;;;;;;;;4996213;28;20085;-60
2021/12/08 06:17:24;;;;;;;49.97;21.92;;;;;;;;;;4996846;28;20506;-60
2021/12/08 06:19:50;;;;;;;59.28;25.98;;;;;;;;;;4997432;28;20021;-58
2021/12/08 06:22:18;;;;;;;70.35;28.75;;;;;;;;;;4997291;28;20026;-59
2021/12/08 06:24:44;;;;;;;76.00;33.08;;;;;;;;;;4997715;28;20026;-60
2021/12/08 06:27:11;;;;;;;77.20;34.05;;;;;;;;;;4997978;28;20033;-60
2021/12/08 06:29:38;;;;;;;76.95;33.53;;;;;;;;;;4997664;28;20026;-61
2021/12/08 06:32:05;;;;;;;65.38;29.45;;;;;;;;;;4997378;28;20049;-58
2021/12/08 06:34:31;;;;;;;69.13;33.05;;;;;;;;;;4980280;28;20050;-58
2021/12/08 06:37:02;;;;;;;36.42;16.50;;;;;;;;;;4996779;28;20221;-60
2021/12/08 06:39:30;;;;;;;21.05;10.05;;;;;;;;;;4997829;28;20080;-59
2021/12/08 06:41:58;;;;;;;24.17;9.52;;;;;;;;;;4997318;28;20026;-60
2021/12/08 06:44:26;;;;;;;24.20;10.57;;;;;;;;;;4997120;28;20023;-61
2021/12/08 06:46:53;;;;;;;22.50;11.15;;;;;;;;;;4995308;28;20022;-60
2021/12/08 06:49:20;;;;;;;29.38;12.30;;;;;;;;;;4996456;28;20020;-60
2021/12/08 06:51:49;;;;;;;39.63;15.30;;;;;;;;;;4997159;28;20029;-60
2021/12/08 06:54:17;;;;;;;39.83;17.55;;;;;;;;;;4996887;28;20486;-60
2021/12/08 06:56:48;;;;;;;47.83;20.08;;;;;;;;;;4995771;28;20050;-59
2021/12/08 06:59:17;;;;;;;53.17;23.00;;;;;;;;;;4997006;28;20033;-59
2021/12/08 07:07:12;;;;;;;70.35;27.92;;;;;;;;;;4996313;28;20034;-60
2021/12/08 07:09:53;;;;;;;54.30;24.63;;;;;;;;;;4996290;28;20042;-58
2021/12/08 07:12:23;;;;;;;80.18;32.85;;;;;;;;;;4996641;28;20057;-60
2021/12/08 07:14:52;;;;;;;61.90;27.95;;;;;;;;;;4997117;28;20054;-60
2021/12/08 07:17:21;;;;;;;57.88;24.13;;;;;;;;;;4996057;28;20042;-61
2021/12/08 07:19:52;;;;;;;57.35;23.95;;;;;;;;;;4996721;28;20081;-61
2021/12/08 07:22:26;;;;;;;49.20;21.38;;;;;;;;;;4997220;28;20353;-60
2021/12/08 07:24:53;;;;;;;51.63;19.33;;;;;;;;;;4996103;28;20110;-62
2021/12/08 07:27:22;;;;;;;54.88;23.58;;;;;;;;;;4996758;28;20018;-61
2021/12/08 07:29:49;;;;;;;122.65;43.00;;;;;;;;;;4996603;28;20022;-59
2021/12/08 07:32:20;;;;;;;58.13;23.10;;;;;;;;;;4996002;28;20491;-60
2021/12/08 07:34:47;;;;;;;117.45;43.10;;;;;;;;;;4996570;28;20034;-59
2021/12/08 07:37:16;;;;;;;94.28;36.00;;;;;;;;;;4996652;28;20037;-60
2021/12/08 07:39:46;;;;;;;106.40;36.08;;;;;;;;;;4995704;28;20022;-60
2021/12/08 07:42:19;;;;;;;78.90;28.67;;;;;;;;;;4996656;28;20054;-60
2021/12/08 07:44:47;;;;;;;89.60;35.60;;;;;;;;;;4996003;28;20138;-59
2021/12/08 07:47:16;;;;;;;88.25;35.47;;;;;;;;;;4996417;28;20028;-60
2021/12/08 07:49:46;;;;;;;61.85;28.95;;;;;;;;;;4995977;28;20475;-60
2021/12/08 07:52:14;;;;;;;84.35;33.38;;;;;;;;;;4995548;28;20369;-60
2021/12/08 07:54:41;;;;;;;77.25;33.03;;;;;;;;;;4996111;28;20032;-59
2021/12/08 07:57:09;;;;;;;68.55;29.42;;;;;;;;;;4995988;28;20074;-60
2021/12/08 07:59:37;;;;;;;85.53;34.85;;;;;;;;;;4995616;28;20130;-60
2021/12/08 08:02:07;;;;;;;41.15;21.48;;;;;;;;;;4995959;28;20054;-61
2021/12/08 08:04:34;;;;;;;41.65;19.27;;;;;;;;;;4996192;28;20476;-60
2021/12/08 08:07:01;;;;;;;48.10;21.20;;;;;;;;;;4995527;28;20460;-60
2021/12/08 08:09:29;;;;;;;50.58;24.92;;;;;;;;;;4995867;28;20034;-59
2021/12/08 08:11:57;;;;;;;48.72;22.77;;;;;;;;;;4995788;28;20034;-60
2021/12/08 08:14:34;;;;;;;33.00;16.65;;;;;;;;;;4995563;28;20027;-60
2021/12/08 08:17:00;;;;;;;23.27;12.40;;;;;;;;;;4996224;28;20030;-60
2021/12/08 08:19:29;;;;;;;24.88;11.82;;;;;;;;;;4996146;28;20351;-60
2021/12/08 08:22:00;;;;;;;19.05;8.18;;;;;;;;;;4995250;28;20057;-60
2021/12/08 08:24:27;;;;;;;33.05;12.60;;;;;;;;;;4995272;28;20513;-61
2021/12/08 08:26:54;;;;;;;46.50;18.40;;;;;;;;;;4995233;28;20371;-61
2021/12/08 08:29:21;;;;;;;53.38;21.42;;;;;;;;;;4995472;28;20030;-61
2021/12/08 08:31:58;;;;;;;35.05;14.50;;;;;;;;;;4995427;28;20057;-61
2021/12/08 08:34:25;;;;;;;32.65;15.02;;;;;;;;;;4995044;28;20499;-61
2021/12/08 08:36:51;;;;;;;35.58;17.80;;;;;;;;;;4995533;28;20037;-61
2021/12/08 08:39:21;;;;;;;33.58;16.23;;;;;;;;;;4995279;28;20514;-61
2021/12/08 08:41:47;;;;;;;25.70;13.98;;;;;;;;;;4994943;28;20092;-61
2021/12/08 08:44:18;;;;;;;32.30;16.08;;;;;;;;;;4994906;28;20479;-61
2021/12/08 08:46:46;;;;;;;26.42;12.98;;;;;;;;;;4995145;28;20030;-61
2021/12/08 08:49:15;;;;;;;42.70;20.20;;;;;;;;;;4994833;28;20420;-61
2021/12/08 08:51:45;;;;;;;53.63;21.23;;;;;;;;;;4995238;28;20114;-61
2021/12/08 08:54:21;;;;;;;38.10;15.87;;;;;;;;;;4995655;28;20077;-62
2021/12/08 08:56:53;;;;;;;28.85;15.35;;;;;;;;;;4994715;28;20368;-61
2021/12/08 08:59:30;;;;;;;28.67;12.90;;;;;;;;;;4995257;28;20050;-61
2021/12/08 09:01:57;;;;;;;29.67;15.57;;;;;;;;;;4994563;28;20042;-61
2021/12/08 09:04:28;;;;;;;24.20;13.55;;;;;;;;;;4994604;28;20379;-61
2021/12/08 09:06:56;;;;;;;;;;;;;;;;;;4995400;28;20050;-61
2021/12/08 09:09:24;;;;;;;26.13;13.75;;;;;;;;;;4994471;28;19968;-61
2021/12/08 09:11:53;;;;;;;34.55;17.70;;;;;;;;;;4995006;28;20026;-61
2021/12/08 09:14:28;;;;;;;37.13;17.60;;;;;;;;;;4994448;28;20387;-61
2021/12/08 09:16:57;;;;;;;40.60;19.77;;;;;;;;;;4994290;28;20030;-61
2021/12/08 09:19:26;;;;;;;28.30;14.20;;;;;;;;;;4994316;28;20022;-61
2021/12/08 09:22:01;;;;;;;26.02;12.38;;;;;;;;;;4994850;28;20049;-61
2021/12/08 09:24:48;;;;;;;29.90;15.32;;;;;;;;;;4994049;28;20034;-60
2021/12/08 09:27:23;;;;;;;25.17;14.73;;;;;;;;;;4995352;28;20027;-61
2021/12/08 09:29:55;;;;;;;31.38;16.17;;;;;;;;;;4994018;28;20030;-62
2021/12/08 09:32:29;;;;;;;32.35;17.40;;;;;;;;;;4995024;28;20026;-61
2021/12/08 09:34:58;;;;;;;35.70;19.95;;;;;;;;;;4994420;28;20034;-60
2021/12/08 09:37:30;;;;;;;32.85;20.27;;;;;;;;;;4993650;28;20061;-60
2021/12/08 09:40:05;;;;;;;36.70;22.15;;;;;;;;;;4994810;28;20070;-60
2021/12/08 09:42:38;;;;;;;46.60;24.02;;;;;;;;;;4994401;28;20072;-60
2021/12/08 09:45:12;;;;;;;41.60;23.00;;;;;;;;;;4993920;28;20027;-60
2021/12/08 09:47:38;;;;;;;44.70;25.52;;;;;;;;;;4994347;28;20030;-61
2021/12/08 09:50:07;;;;;;;38.13;25.38;;;;;;;;;;4993977;28;20023;-60
2021/12/08 09:52:34;;;;;;;46.33;25.70;;;;;;;;;;4993688;28;20081;-61
2021/12/08 09:55:01;;;;;;;37.28;22.85;;;;;;;;;;4993914;28;20098;-61
2021/12/08 09:57:28;;;;;;;29.40;17.27;;;;;;;;;;4993939;28;20033;-60
2021/12/08 09:59:54;;;;;;;40.92;21.48;;;;;;;;;;4993557;28;20037;-61
2021/12/08 10:02:31;;;;;;;40.75;22.30;;;;;;;;;;4995176;28;20360;-60
2021/12/08 10:04:58;;;;;;;34.72;18.35;;;;;;;;;;4993870;28;20177;-60
2021/12/08 10:07:26;;;;;;;36.15;19.10;;;;;;;;;;4993819;28;20031;-59
2021/12/08 10:09:52;;;;;;;32.55;19.65;;;;;;;;;;4994069;28;20034;-60
2021/12/08 10:12:19;;;;;;;32.00;18.90;;;;;;;;;;4993939;28;20027;-60
2021/12/08 10:14:46;;;;;;;31.33;17.00;;;;;;;;;;4976780;28;20026;-60
2021/12/08 10:17:13;;;;;;;30.52;19.35;;;;;;;;;;4993661;28;20499;-60
2021/12/08 10:19:40;;;;;;;29.00;16.33;;;;;;;;;;4993383;28;20023;-60
2021/12/08 10:22:16;;;;;;;28.30;18.25;;;;;;;;;;4994271;28;20026;-60
2021/12/08 10:24:42;;;;;;;31.13;18.52;;;;;;;;;;4993944;28;20023;-60
2021/12/08 10:27:09;;;;;;;26.70;15.10;;;;;;;;;;4993221;28;20045;-61
2021/12/08 10:29:35;;;;;;;25.20;14.00;;;;;;;;;;4976062;28;20030;-62
2021/12/08 10:32:03;;;;;;;23.63;15.15;;;;;;;;;;4993661;28;20053;-61
2021/12/08 10:34:36;;;;;;;23.23;14.15;;;;;;;;;;4993306;28;20029;-61
2021/12/08 10:37:06;;;;;;;21.95;13.55;;;;;;;;;;4994079;28;20361;-61
2021/12/08 10:39:36;;;;;;;22.38;12.23;;;;;;;;;;4993561;28;20026;-60
2021/12/08 10:42:02;;;;;;;16.17;11.25;;;;;;;;;;4995384;28;20065;-60
2021/12/08 10:44:35;;;;;;;24.92;15.13;;;;;;;;;;4997209;28;20379;-62
2021/12/08 10:47:02;;;;;;;17.77;11.50;;;;;;;;;;4997179;28;20498;-61
2021/12/08 10:54:45;;;;;;;15.95;9.75;;;;;;;;;;4996840;28;20030;-60
2021/12/08 10:57:20;;;;;;;12.18;8.30;;;;;;;;;;4979532;28;20129;-61
2021/12/08 10:59:55;;;;;;;11.15;6.53;;;;;;;;;;4997248;28;20422;-61
2021/12/08 11:02:42;;;;;;;10.77;7.30;;;;;;;;;;4996283;28;20073;-60
2021/12/08 11:05:28;;;;;;;14.77;10.38;;;;;;;;;;4996951;28;20026;-62
2021/12/08 11:08:17;;;;;;;25.65;16.63;;;;;;;;;;4997118;28;20478;-60
2021/12/08 11:10:46;;;;;;;22.38;13.02;;;;;;;;;;4984525;28;20038;-61
2021/12/08 11:13:13;;;;;;;15.52;10.73;;;;;;;;;;4997355;28;20487;-61
2021/12/08 11:15:40;;;;;;;12.93;8.13;;;;;;;;;;4996414;28;20080;-61
2021/12/08 11:18:07;;;;;;;51.72;28.60;;;;;;;;;;4996731;28;20022;-61
2021/12/08 11:20:34;;;;;;;19.15;11.73;;;;;;;;;;4996432;28;20077;-61
2021/12/08 11:23:03;;;;;;;25.70;15.80;;;;;;;;;;4996426;28;20065;-61
2021/12/08 11:25:34;;;;;;;15.70;11.40;;;;;;;;;;4996707;28;20101;-61
2021/12/08 11:28:18;;;;;;;15.63;11.10;;;;;;;;;;4997387;28;20109;-59
2021/12/08 11:30:45;;;;;;;16.02;10.68;;;;;;;;;;4996244;28;20566;-61
2021/12/08 11:33:17;;;;;;;16.98;10.35;;;;;;;;;;4996762;28;20030;-60
2021/12/08 11:35:43;;;;;;;14.55;9.75;;;;;;;;;;4996144;28;20105;-61
2021/12/08 11:38:10;;;;;;;16.13;10.00;;;;;;;;;;4996005;28;20043;-61
2021/12/08 11:40:37;;;;;;;30.05;16.45;;;;;;;;;;4996913;28;20034;-61
2021/12/08 11:43:03;;;;;;;19.30;10.85;;;;;;;;;;4995765;28;20022;-60
2021/12/08 11:45:37;;;;;;;18.27;12.65;;;;;;;;;;4996239;28;20074;-61
2021/12/08 11:48:04;;;;;;;19.65;11.90;;;;;;;;;;4996798;28;20062;-60
2021/12/08 11:50:32;;;;;;;40.10;24.42;;;;;;;;;;4995895;28;20027;-62
2021/12/08 11:52:58;;;;;;;24.48;13.65;;;;;;;;;;4995586;28;20073;-61
2021/12/08 11:55:25;;;;;;;33.88;21.02;;;;;;;;;;4996162;28;20459;-61
2021/12/08 11:57:56;;;;;;;55.40;32.90;;;;;;;;;;4995675;28;20030;-62
2021/12/08 12:00:32;;;;;;;28.67;17.10;;;;;;;;;;4996534;28;20452;-60
2021/12/08 12:03:01;;;;;;;15.98;10.60;;;;;;;;;;4996245;28;20043;-60
2021/12/08 12:05:35;;;;;;;20.55;12.82;;;;;;;;;;4995950;28;20483;-60
2021/12/08 12:08:02;;;;;;;27.08;13.88;;;;;;;;;;4995579;28;20056;-60
2021/12/08 12:10:30;;;;;;;16.50;11.75;;;;;;;;;;4995467;28;20114;-61
2021/12/08 12:12:57;;;;;;;19.40;12.40;;;;;;;;;;4995581;28;20019;-61
2021/12/08 12:15:24;;;;;;;18.10;11.38;;;;;;;;;;4995747;28;20463;-61
2021/12/08 12:17:50;;;;;;;20.30;12.13;;;;;;;;;;4995226;28;20037;-61
2021/12/08 12:20:19;;;;;;;18.13;12.48;;;;;;;;;;4995949;28;20125;-61
2021/12/08 12:23:04;;;;;;;21.15;14.57;;;;;;;;;;4995459;28;20028;-61
2021/12/08 12:25:37;;;;;;;25.77;17.63;;;;;;;;;;4995248;28;20060;-61
2021/12/08 12:28:15;;;;;;;23.85;14.93;;;;;;;;;;4995790;28;20105;-61
2021/12/08 12:31:01;;;;;;;19.58;12.88;;;;;;;;;;4996323;28;20026;-61
2021/12/08 12:33:27;;;;;;;19.67;12.73;;;;;;;;;;4978305;28;20144;-61
2021/12/08 12:35:55;;;;;;;49.50;25.85;;;;;;;;;;4995194;28;20026;-61
2021/12/08 12:38:39;;;;;;;39.10;23.42;;;;;;;;;;4995165;28;20030;-60
2021/12/08 12:41:06;;;;;;;27.98;17.20;;;;;;;;;;4995260;28;20027;-60
2021/12/08 12:43:37;;;;;;;23.23;13.50;;;;;;;;;;4995183;28;20501;-60
2021/12/08 12:46:03;;;;;;;25.05;16.48;;;;;;;;;;4994961;28;20027;-59
2021/12/08 12:48:31;;;;;;;20.92;12.55;;;;;;;;;;4995899;28;20033;-60
2021/12/08 12:51:00;;;;;;;21.92;13.32;;;;;;;;;;4995443;28;20022;-59
2021/12/08 12:53:35;;;;;;;24.23;14.48;;;;;;;;;;4995328;28;20356;-61
2021/12/08 12:56:01;;;;;;;21.55;14.48;;;;;;;;;;4994708;28;20023;-61
2021/12/08 12:58:41;;;;;;;22.42;14.82;;;;;;;;;;4994870;28;20126;-61
2021/12/08 13:01:09;;;;;;;29.67;18.23;;;;;;;;;;4994593;28;20058;-60
2021/12/08 13:03:37;;;;;;;28.90;15.98;;;;;;;;;;4994649;28;20021;-61
2021/12/08 13:06:04;;;;;;;28.63;15.43;;;;;;;;;;4993970;28;20053;-60
2021/12/08 13:08:49;;;;;;;31.10;17.77;;;;;;;;;;4994256;28;20030;-60
2021/12/08 13:11:41;;;;;;;32.65;18.52;;;;;;;;;;4994356;28;20033;-61
2021/12/08 13:14:19;;;;;;;29.13;16.65;;;;;;;;;;4993461;28;20034;-60
2021/12/08 13:16:45;;;;;;;35.40;19.90;;;;;;;;;;4994360;28;20026;-61
2021/12/08 13:19:15;;;;;;;46.35;23.65;;;;;;;;;;4994548;28;20042;-62
2021/12/08 13:21:49;;;;;;;43.42;22.05;;;;;;;;;;4993903;28;20030;-61
2021/12/08 13:24:28;;;;;;;36.72;19.60;;;;;;;;;;4994570;28;20101;-61
2021/12/08 13:27:01;;;;;;;57.78;27.67;;;;;;;;;;4994453;28;20031;-60
2021/12/08 13:29:31;;;;;;;55.03;27.85;;;;;;;;;;4993871;28;20057;-62
2021/12/08 13:32:09;;;;;;;47.58;23.30;;;;;;;;;;4993893;28;20162;-60
2021/12/08 13:34:35;;;;;;;49.88;22.42;;;;;;;;;;4994107;28;20027;-60
2021/12/08 13:37:23;;;;;;;35.22;19.15;;;;;;;;;;4991912;28;20033;-61
2021/12/08 13:39:53;;;;;;;38.97;20.10;;;;;;;;;;4993420;28;20030;-66
2021/12/08 13:42:28;;;;;;;43.55;19.38;;;;;;;;;;4993406;28;20041;-60
2021/12/08 13:44:59;;;;;;;45.72;21.63;;;;;;;;;;4992834;28;20102;-61
2021/12/08 13:47:44;;;;;;;43.05;19.88;;;;;;;;;;4994237;28;20026;-60
2021/12/08 13:50:15;;;;;;;38.97;19.30;;;;;;;;;;4993847;28;20026;-61
2021/12/08 13:52:43;;;;;;;36.58;18.10;;;;;;;;;;4994212;28;20026;-61
2021/12/08 13:55:10;;;;;;;37.30;20.77;;;;;;;;;;4994196;28;20023;-60
2021/12/08 13:57:52;;;;;;;38.08;18.42;;;;;;;;;;4993895;28;20034;-63
2021/12/08 14:00:18;;;;;;;40.78;21.25;;;;;;;;;;4994067;28;20030;-61
2021/12/08 14:02:49;;;;;;;45.05;23.50;;;;;;;;;;4993917;28;20056;-62
2021/12/08 14:05:35;;;;;;;40.13;21.85;;;;;;;;;;4994575;28;20065;-60
2021/12/08 14:08:15;;;;;;;51.30;23.83;;;;;;;;;;4993848;28;20026;-61
2021/12/08 14:10:43;;;;;;;52.88;26.20;;;;;;;;;;4992581;28;20018;-61
2021/12/08 14:13:11;;;;;;;88.18;43.47;;;;;;;;;;4993900;28;20073;-60
2021/12/08 14:15:37;;;;;;;84.45;38.33;;;;;;;;;;4994117;28;20022;-60
2021/12/08 14:18:21;;;;;;;65.28;31.85;;;;;;;;;;4996917;28;20038;-61
2021/12/08 14:20:49;;;;;;;59.70;31.17;;;;;;;;;;4997827;28;20030;-61
2021/12/08 14:23:16;;;;;;;62.78;29.65;;;;;;;;;;4997772;28;20130;-60
2021/12/08 14:25:56;;;;;;;79.65;39.28;;;;;;;;;;4997369;28;20030;-61
2021/12/08 14:28:39;;;;;;;77.03;40.00;;;;;;;;;;4997570;28;20105;-60
2021/12/08 14:31:06;;;;;;;57.63;29.88;;;;;;;;;;4996879;28;20046;-60
2021/12/08 14:33:32;;;;;;;350.33;146.10;;;;;;;;;;4997700;28;20030;-60
2021/12/08 14:36:00;;;;;;;119.05;49.28;;;;;;;;;;4997814;28;20076;-60
2021/12/08 14:38:26;;;;;;;182.73;85.15;;;;;;;;;;4997058;28;20030;-59
2021/12/08 14:40:53;;;;;;;86.88;40.30;;;;;;;;;;4997549;28;20042;-61
2021/12/08 14:43:25;;;;;;;119.05;56.40;;;;;;;;;;4997475;28;20026;-61
2021/12/08 14:45:52;;;;;;;250.80;113.00;;;;;;;;;;4997192;28;20015;-61
2021/12/08 14:48:18;;;;;;;135.00;61.50;;;;;;;;;;4997961;28;20026;-60
2021/12/08 14:50:44;;;;;;;121.90;60.03;;;;;;;;;;4997115;28;20598;-59
2021/12/08 14:53:14;;;;;;;95.90;45.85;;;;;;;;;;4996705;28;20026;-60
2021/12/08 14:55:41;;;;;;;116.05;55.78;;;;;;;;;;4997904;28;20081;-59
2021/12/08 14:58:11;;;;;;;159.18;78.55;;;;;;;;;;4997077;28;20041;-60
2021/12/08 15:00:39;;;;;;;128.25;62.10;;;;;;;;;;4996553;28;20117;-60
2021/12/08 15:03:11;;;;;;;125.35;55.33;;;;;;;;;;4997256;28;20569;-60
2021/12/08 15:05:54;;;;;;;136.95;67.18;;;;;;;;;;4992229;28;20522;-60
2021/12/08 15:08:24;;;;;;;132.07;63.08;;;;;;;;;;4996717;28;20117;-59
2021/12/08 15:10:50;;;;;;;96.10;48.55;;;;;;;;;;4996773;28;20056;-59
2021/12/08 15:13:24;;;;;;;77.28;34.92;;;;;;;;;;4996358;28;20026;-58
2021/12/08 15:15:56;;;;;;;50.53;25.88;;;;;;;;;;4996883;28;20352;-60
2021/12/08 15:18:23;;;;;;;;;;;;;;;;;;4997286;28;20037;-62
2021/12/08 15:20:58;;;;;;;107.93;45.22;;;;;;;;;;4996206;28;19914;-61
2021/12/08 15:23:38;;;;;;;75.60;35.60;;;;;;;;;;4996876;28;20018;-59
2021/12/08 15:26:06;;;;;;;106.05;48.00;;;;;;;;;;4996741;28;20535;-60
2021/12/08 15:28:33;;;;;;;168.02;73.15;;;;;;;;;;4995021;28;20056;-61
2021/12/08 15:31:00;;;;;;;106.18;47.17;;;;;;;;;;4979046;28;20034;-59